Time;durP1;ratioP1;P1;durP2;ratioP2;P2;SDS_P1;SDS_P2;PMS_P1;PMS_P2;Temp;Humidity;BMP_temperature;BMP_pressure;BME280_temperature;BME280_humidity;BME280_pressure;Samples;Min_cycle;Max_cycle;Signal;HPM_P1;HPM_P2
2022/03/27 00:00:52;;;;;;;30.65;12.25;;;6.90;70.60;;;;;;5005712;28;20026;-68
2022/03/27 00:03:18;;;;;;;33.42;12.02;;;6.90;70.70;;;;;;5008754;28;20037;-68
2022/03/27 00:05:43;;;;;;;30.10;12.63;;;6.90;71.10;;;;;;5011658;28;20152;-68
2022/03/27 00:08:09;;;;;;;25.30;11.13;;;6.80;71.10;;;;;;5006758;28;20679;-69
2022/03/27 00:11:23;;;;;;;32.15;12.32;;;6.80;71.40;;;;;;5006072;28;20145;-69
2022/03/27 00:13:21;;;;;;;25.13;11.50;;;6.80;71.70;;;;;;5005294;28;20072;-68
2022/03/27 00:15:46;;;;;;;31.42;11.75;;;6.70;72.10;;;;;;5009851;28;20046;-69
2022/03/27 00:18:12;;;;;;;28.17;11.70;;;6.70;72.40;;;;;;5009600;28;20445;-68
2022/03/27 00:20:38;;;;;;;28.73;12.10;;;6.60;72.40;;;;;;5010567;28;20372;-69
2022/03/27 00:23:03;;;;;;;27.70;11.77;;;6.60;73.10;;;;;;5016748;28;20033;-69
2022/03/27 00:25:29;;;;;;;30.33;11.35;;;6.60;72.90;;;;;;5014021;28;20092;-68
2022/03/27 00:27:55;;;;;;;29.45;12.15;;;6.60;73.10;;;;;;5008783;28;20022;-68
2022/03/27 00:30:21;;;;;;;25.60;12.18;;;6.50;74.50;;;;;;5011504;28;20060;-68
2022/03/27 00:32:46;;;;;;;34.05;10.75;;;6.40;73.70;;;;;;5012015;28;20041;-67
2022/03/27 00:35:12;;;;;;;24.05;10.93;;;6.40;74.00;;;;;;5007969;28;20026;-68
2022/03/27 00:37:38;;;;;;;34.58;10.80;;;6.40;74.70;;;;;;5011810;28;20025;-67
2022/03/27 00:40:04;;;;;;;24.83;10.60;;;6.40;74.60;;;;;;5009630;28;20022;-68
2022/03/27 00:42:30;;;;;;;27.25;10.95;;;6.30;75.20;;;;;;5004404;28;20172;-68
2022/03/27 00:44:55;;;;;;;24.92;10.68;;;6.30;75.40;;;;;;5012782;28;20109;-68
2022/03/27 00:47:22;;;;;;;24.67;10.38;;;6.20;75.70;;;;;;5012109;28;20033;-67
2022/03/27 00:49:48;;;;;;;26.48;11.82;;;6.20;75.70;;;;;;5008315;28;20026;-68
2022/03/27 00:52:13;;;;;;;25.35;10.90;;;6.20;76.20;;;;;;5013799;28;20044;-68
2022/03/27 00:54:39;;;;;;;23.58;10.45;;;6.10;76.40;;;;;;5012408;28;20061;-67
2022/03/27 00:57:05;;;;;;;25.20;10.80;;;6.10;76.80;;;;;;5011338;28;20054;-68
2022/03/27 00:59:30;;;;;;;30.00;10.88;;;6.10;77.20;;;;;;5007483;28;20030;-68
2022/03/27 01:01:56;;;;;;;30.50;11.18;;;6.00;77.40;;;;;;5011264;28;20096;-67
2022/03/27 01:04:22;;;;;;;23.88;10.05;;;6.00;77.80;;;;;;5010207;28;20487;-67
2022/03/27 01:06:47;;;;;;;23.55;9.75;;;6.00;78.40;;;;;;5013464;28;20026;-68
2022/03/27 01:09:36;;;;;;;26.45;10.80;;;5.90;78.40;;;;;;5005639;28;20030;-68
2022/03/27 01:12:22;;;;;;;24.90;10.30;;;5.90;78.80;;;;;;5010396;28;20410;-67
2022/03/27 01:14:49;;;;;;;24.95;9.73;;;5.90;79.20;;;;;;5016887;28;20030;-67
2022/03/27 01:17:18;;;;;;;25.67;10.30;;;5.90;79.70;;;;;;5011765;28;20103;-68
2022/03/27 01:19:46;;;;;;;27.13;10.30;;;5.90;80.40;;;;;;5003745;28;20383;-68
2022/03/27 01:22:12;;;;;;;24.25;10.25;;;5.80;80.00;;;;;;5010271;28;20099;-68
2022/03/27 01:24:39;;;;;;;29.42;10.40;;;5.80;80.20;;;;;;5002137;28;20030;-68
2022/03/27 01:27:05;;;;;;;26.98;11.38;;;5.80;80.80;;;;;;5010804;28;20034;-68
2022/03/27 01:29:31;;;;;;;22.73;10.32;;;5.80;81.10;;;;;;5020022;28;20061;-67
2022/03/27 01:31:58;;;;;;;27.60;9.85;;;5.80;81.60;;;;;;5009108;28;20112;-68
2022/03/27 01:34:23;;;;;;;26.75;9.70;;;5.80;81.90;;;;;;5015855;28;20056;-69
2022/03/27 01:36:49;;;;;;;25.33;10.45;;;5.80;82.10;;;;;;5007697;28;20053;-68
2022/03/27 01:39:16;;;;;;;27.17;10.35;;;5.70;82.60;;;;;;5008397;28;20092;-67
2022/03/27 01:41:43;;;;;;;28.60;10.52;;;5.70;83.10;;;;;;5008243;28;20413;-68
2022/03/27 01:44:16;;;;;;;28.40;9.82;;;5.70;83.80;;;;;;5010853;28;20037;-68
2022/03/27 01:46:43;;;;;;;22.15;9.38;;;5.70;84.50;;;;;;5010715;28;20124;-68
2022/03/27 01:49:11;;;;;;;24.77;9.50;;;5.60;84.20;;;;;;5011097;28;20044;-68
2022/03/27 01:51:38;;;;;;;20.30;9.55;;;5.50;84.90;;;;;;5010318;28;20030;-68
2022/03/27 01:54:04;;;;;;;25.70;11.40;;;5.50;85.70;;;;;;5007993;28;20087;-68
2022/03/27 01:56:30;;;;;;;27.98;9.90;;;5.50;85.80;;;;;;5000909;28;20479;-68
2022/03/27 01:58:56;;;;;;;24.88;9.68;;;5.40;86.80;;;;;;5004735;28;20056;-67
2022/03/27 02:01:22;;;;;;;21.98;10.25;;;5.40;86.80;;;;;;5009058;28;20037;-67
2022/03/27 02:03:48;;;;;;;21.17;9.60;;;5.40;87.30;;;;;;5004148;28;20482;-69
2022/03/27 02:06:15;;;;;;;26.33;10.65;;;5.30;87.70;;;;;;5006636;28;20030;-69
2022/03/27 02:08:42;;;;;;;25.98;11.23;;;5.30;88.20;;;;;;5006131;28;20512;-68
2022/03/27 02:11:09;;;;;;;25.73;10.80;;;5.30;88.80;;;;;;5013572;28;20105;-68
2022/03/27 02:13:35;;;;;;;25.75;9.93;;;5.30;88.80;;;;;;5009006;28;20465;-67
2022/03/27 02:16:03;;;;;;;28.73;10.50;;;5.20;89.50;;;;;;5008230;28;20072;-68
2022/03/27 02:18:29;;;;;;;24.42;8.98;;;5.20;90.00;;;;;;5005815;28;20033;-67
2022/03/27 02:20:56;;;;;;;22.63;9.82;;;5.20;90.00;;;;;;5029352;23;20042;-67
2022/03/27 02:23:22;;;;;;;29.85;10.13;;;5.10;90.50;;;;;;5007759;28;20041;-67
2022/03/27 02:25:48;;;;;;;28.10;9.95;;;5.20;90.60;;;;;;5006837;28;20374;-67
2022/03/27 02:28:14;;;;;;;24.40;10.02;;;5.10;90.80;;;;;;5003163;28;20030;-68
2022/03/27 02:30:41;;;;;;;27.98;9.57;;;5.00;91.50;;;;;;5006403;28;20034;-67
2022/03/27 02:33:07;;;;;;;26.75;9.88;;;5.10;91.50;;;;;;5006644;28;20123;-67
2022/03/27 02:35:33;;;;;;;23.67;10.27;;;5.10;91.60;;;;;;5004365;28;20320;-67
2022/03/27 02:37:59;;;;;;;24.25;9.90;;;5.00;91.70;;;;;;5002671;28;20018;-67
2022/03/27 02:40:26;;;;;;;27.05;9.75;;;5.00;92.10;;;;;;5003301;28;20055;-67
2022/03/27 02:42:52;;;;;;;27.15;10.80;;;4.90;92.40;;;;;;5004408;28;20172;-67
2022/03/27 02:45:18;;;;;;;27.05;9.88;;;4.90;92.60;;;;;;5005229;28;20034;-67
2022/03/27 02:47:44;;;;;;;22.25;9.40;;;4.90;93.20;;;;;;5003975;28;20498;-66
2022/03/27 02:50:10;;;;;;;24.80;10.70;;;4.90;93.00;;;;;;5003509;28;20088;-68
2022/03/27 02:52:36;;;;;;;25.88;9.88;;;4.80;93.40;;;;;;5005404;28;20556;-69
2022/03/27 02:55:02;;;;;;;23.23;9.32;;;4.80;93.60;;;;;;5004617;28;20030;-69
2022/03/27 02:57:28;;;;;;;29.50;10.00;;;4.70;93.90;;;;;;5002857;28;20034;-69
2022/03/27 02:59:54;;;;;;;26.98;10.75;;;4.70;94.50;;;;;;5004705;28;20076;-68
2022/03/27 03:02:20;;;;;;;27.90;10.00;;;4.70;94.70;;;;;;5004565;28;20033;-69
2022/03/27 03:04:46;;;;;;;22.80;9.45;;;4.70;95.30;;;;;;5002819;28;20115;-68
2022/03/27 03:07:14;;;;;;;26.88;10.23;;;4.70;95.20;;;;;;5003738;28;20037;-68
2022/03/27 03:09:41;;;;;;;21.75;9.82;;;4.60;95.20;;;;;;5003567;28;20044;-68
2022/03/27 03:12:07;;;;;;;24.77;10.27;;;4.60;95.40;;;;;;5001188;28;20034;-68
2022/03/27 03:14:33;;;;;;;22.10;9.75;;;4.50;95.80;;;;;;4999979;28;20058;-68
2022/03/27 03:17:01;;;;;;;30.13;10.32;;;4.50;96.00;;;;;;5002588;28;20054;-68
2022/03/27 03:19:28;;;;;;;21.63;9.48;;;4.50;96.30;;;;;;5004831;28;20037;-68
2022/03/27 03:21:54;;;;;;;24.08;9.20;;;4.50;96.70;;;;;;5004963;28;20026;-68
2022/03/27 03:24:20;;;;;;;24.35;10.85;;;4.50;96.50;;;;;;5003567;28;20030;-68
2022/03/27 03:26:47;;;;;;;26.13;10.07;;;4.50;96.70;;;;;;5004954;28;20034;-68
2022/03/27 03:29:13;;;;;;;26.50;10.18;;;4.50;96.80;;;;;;5006199;28;20022;-68
2022/03/27 03:31:39;;;;;;;28.80;10.05;;;4.50;97.00;;;;;;5006850;28;20288;-68
2022/03/27 03:34:05;;;;;;;28.98;10.10;;;4.40;97.10;;;;;;5005088;28;20037;-68
2022/03/27 03:36:30;;;;;;;28.58;9.73;;;4.40;97.10;;;;;;5009741;28;20030;-68
2022/03/27 03:38:56;;;;;;;21.33;9.68;;;4.40;96.80;;;;;;5007322;28;20022;-68
2022/03/27 03:41:22;;;;;;;23.15;9.48;;;4.40;96.90;;;;;;5008502;28;20026;-68
2022/03/27 03:43:47;;;;;;;28.83;10.38;;;4.30;96.90;;;;;;5007354;28;20400;-67
2022/03/27 03:46:13;;;;;;;28.10;9.80;;;4.30;97.20;;;;;;5003964;28;20092;-67
2022/03/27 03:48:39;;;;;;;28.45;9.75;;;4.30;96.80;;;;;;5008349;28;20550;-67
2022/03/27 03:51:05;;;;;;;21.83;10.68;;;4.20;97.10;;;;;;5007645;28;20112;-68
2022/03/27 03:53:31;;;;;;;28.92;10.20;;;4.20;97.30;;;;;;5005173;28;20156;-68
2022/03/27 03:55:57;;;;;;;27.25;10.32;;;4.20;97.60;;;;;;5009994;28;20030;-68
2022/03/27 03:58:22;;;;;;;25.60;10.75;;;4.20;97.80;;;;;;5004370;28;20025;-68
2022/03/27 04:00:50;;;;;;;23.30;10.45;;;4.20;98.40;;;;;;5003039;28;20030;-68
2022/03/27 04:03:17;;;;;;;29.17;9.63;;;4.20;98.10;;;;;;5008001;28;20440;-68
2022/03/27 04:05:42;;;;;;;29.73;10.23;;;4.20;98.00;;;;;;5007767;28;20076;-68
2022/03/27 04:08:08;;;;;;;26.35;10.10;;;4.10;98.10;;;;;;5009509;28;20553;-68
2022/03/27 04:10:34;;;;;;;21.70;9.65;;;4.10;98.20;;;;;;5007044;28;20030;-68
2022/03/27 04:12:59;;;;;;;27.10;10.30;;;4.10;98.40;;;;;;5006114;28;20389;-68
2022/03/27 04:15:25;;;;;;;26.83;10.98;;;4.00;98.50;;;;;;5009111;28;20095;-67
2022/03/27 04:17:51;;;;;;;29.13;10.93;;;4.00;99.10;;;;;;5004660;28;20453;-68
2022/03/27 04:20:18;;;;;;;31.08;10.77;;;4.00;99.50;;;;;;5007554;28;20545;-67
2022/03/27 04:22:44;;;;;;;25.83;9.77;;;4.00;99.90;;;;;;5008460;28;20033;-68
2022/03/27 04:25:11;;;;;;;25.33;10.32;;;4.00;99.90;;;;;;5009751;28;20038;-68
2022/03/27 04:27:37;;;;;;;25.05;10.48;;;3.90;99.90;;;;;;5005510;28;20026;-69
2022/03/27 04:30:08;;;;;;;21.85;9.95;;;3.90;99.90;;;;;;5007599;28;20038;-68
2022/03/27 04:32:34;;;;;;;33.03;10.63;;;3.80;99.90;;;;;;5005247;28;20040;-68
2022/03/27 04:35:00;;;;;;;22.48;9.27;;;3.80;99.90;;;;;;5007477;28;20064;-68
2022/03/27 04:37:25;;;;;;;22.88;11.13;;;3.80;99.90;;;;;;5003184;28;20115;-68
2022/03/27 04:39:51;;;;;;;25.23;10.88;;;3.70;99.90;;;;;;5003957;28;20073;-68
2022/03/27 04:42:17;;;;;;;26.13;10.30;;;3.70;99.90;;;;;;5004749;28;20041;-68
2022/03/27 04:44:42;;;;;;;24.85;10.13;;;3.70;99.90;;;;;;5008226;28;20564;-68
2022/03/27 04:47:08;;;;;;;28.15;9.35;;;3.60;99.90;;;;;;5003568;28;20031;-68
2022/03/27 04:49:34;;;;;;;26.40;10.57;;;3.60;99.90;;;;;;5003561;28;20479;-68
2022/03/27 04:51:59;;;;;;;25.63;9.68;;;3.60;99.90;;;;;;5001818;28;20044;-69
2022/03/27 04:54:25;;;;;;;28.30;9.48;;;3.60;99.90;;;;;;5007264;28;20029;-68
2022/03/27 04:56:51;;;;;;;26.58;11.35;;;3.50;99.90;;;;;;5003880;28;20013;-68
2022/03/27 04:59:17;;;;;;;27.30;9.82;;;3.50;99.90;;;;;;5007350;28;20026;-68
2022/03/27 05:01:42;;;;;;;29.23;10.63;;;3.60;99.90;;;;;;5006608;28;20029;-68
2022/03/27 05:04:09;;;;;;;29.48;11.00;;;3.50;99.90;;;;;;5006207;28;20867;-68
2022/03/27 05:06:35;;;;;;;31.75;11.05;;;3.50;99.90;;;;;;5003980;28;20486;-68
2022/03/27 05:09:01;;;;;;;25.88;9.50;;;3.50;99.90;;;;;;5004613;28;20525;-68
2022/03/27 05:11:30;;;;;;;27.60;10.05;;;3.50;99.90;;;;;;5011294;28;20030;-68
2022/03/27 05:13:56;;;;;;;30.50;10.65;;;3.50;99.90;;;;;;5002379;28;20034;-68
2022/03/27 05:16:22;;;;;;;26.27;9.82;;;3.50;99.90;;;;;;5007189;28;20025;-68
2022/03/27 05:18:48;;;;;;;21.42;10.40;;;3.40;99.90;;;;;;5004283;28;20080;-68
2022/03/27 05:21:15;;;;;;;25.40;9.90;;;3.40;99.90;;;;;;5006211;28;20809;-68
2022/03/27 05:23:42;;;;;;;26.85;10.20;;;3.40;99.90;;;;;;5004417;28;20097;-68
2022/03/27 05:26:08;;;;;;;22.88;10.23;;;3.40;99.90;;;;;;5008571;28;20030;-68
2022/03/27 05:28:34;;;;;;;29.73;9.95;;;3.40;99.90;;;;;;5018596;28;20030;-68
2022/03/27 05:31:02;;;;;;;27.55;10.40;;;3.40;99.90;;;;;;5007998;28;20084;-67
2022/03/27 05:33:28;;;;;;;28.90;9.82;;;3.30;99.90;;;;;;5006542;28;20026;-68
2022/03/27 05:35:54;;;;;;;24.52;10.90;;;3.30;99.90;;;;;;5006367;28;20093;-68
2022/03/27 05:38:20;;;;;;;26.13;11.32;;;3.40;99.90;;;;;;5003695;28;20030;-68
2022/03/27 05:40:46;;;;;;;27.05;12.07;;;3.40;99.90;;;;;;5002179;28;20525;-67
2022/03/27 05:43:11;;;;;;;30.83;12.13;;;3.40;99.90;;;;;;5002349;28;20034;-68
2022/03/27 05:45:37;;;;;;;36.92;12.77;;;3.40;99.90;;;;;;5008762;28;20088;-68
2022/03/27 05:48:03;;;;;;;24.13;10.85;;;3.40;99.90;;;;;;5005528;28;20049;-68
2022/03/27 05:50:29;;;;;;;23.55;10.82;;;3.40;99.90;;;;;;5006029;28;20081;-69
2022/03/27 05:52:55;;;;;;;39.58;13.48;;;3.50;99.90;;;;;;5001614;28;20085;-67
2022/03/27 05:55:22;;;;;;;25.88;10.85;;;3.60;99.90;;;;;;5007310;28;20402;-68
2022/03/27 05:57:49;;;;;;;26.33;12.18;;;3.60;99.90;;;;;;5001742;28;20037;-69
2022/03/27 06:00:16;;;;;;;27.13;12.48;;;3.70;99.90;;;;;;4997601;28;20074;-69
2022/03/27 06:02:43;;;;;;;28.95;12.85;;;3.80;99.90;;;;;;5005811;28;20030;-68
2022/03/27 06:05:09;;;;;;;28.65;11.75;;;3.80;99.90;;;;;;5005634;28;20028;-69
2022/03/27 06:07:45;;;;;;;30.40;12.95;;;3.90;99.90;;;;;;5003466;28;20026;-67
2022/03/27 06:10:11;;;;;;;31.60;12.88;;;4.00;99.90;;;;;;4997491;28;20463;-66
2022/03/27 06:12:37;;;;;;;27.33;12.02;;;4.00;99.90;;;;;;5002158;28;20110;-67
2022/03/27 06:15:03;;;;;;;28.33;13.18;;;4.10;99.90;;;;;;4999508;28;20101;-67
2022/03/27 06:17:29;;;;;;;27.88;11.82;;;4.20;99.90;;;;;;5002078;28;20034;-67
2022/03/27 06:19:55;;;;;;;32.63;12.43;;;4.30;99.90;;;;;;5005752;28;20081;-68
2022/03/27 06:22:20;;;;;;;33.92;13.82;;;4.30;99.90;;;;;;5006083;28;20382;-68
2022/03/27 06:24:46;;;;;;;30.92;14.05;;;4.40;99.90;;;;;;5003546;28;20073;-66
2022/03/27 06:27:12;;;;;;;33.35;15.15;;;4.50;99.90;;;;;;5006204;28;20026;-66
2022/03/27 06:29:37;;;;;;;30.50;14.45;;;4.60;99.80;;;;;;5003783;28;20034;-66
2022/03/27 06:32:03;;;;;;;33.45;15.25;;;4.70;99.20;;;;;;4996145;28;20531;-66
2022/03/27 06:34:30;;;;;;;40.97;15.05;;;4.70;99.00;;;;;;5008341;28;20032;-66
2022/03/27 06:36:56;;;;;;;31.85;14.40;;;4.70;99.10;;;;;;5003846;28;20029;-67
2022/03/27 06:39:21;;;;;;;32.92;14.45;;;4.80;98.80;;;;;;5001801;28;20053;-68
2022/03/27 06:41:47;;;;;;;29.70;14.48;;;4.90;98.50;;;;;;5005353;28;20139;-68
2022/03/27 06:44:13;;;;;;;31.63;14.55;;;4.90;98.40;;;;;;5008305;28;20037;-68
2022/03/27 06:46:39;;;;;;;32.30;14.48;;;5.00;98.20;;;;;;5003686;28;20414;-67
2022/03/27 06:49:05;;;;;;;34.83;14.23;;;5.00;98.00;;;;;;5006634;28;20032;-67
2022/03/27 06:51:31;;;;;;;33.38;14.85;;;5.20;97.70;;;;;;5001223;28;20387;-67
2022/03/27 06:53:57;;;;;;;30.63;15.23;;;5.20;97.40;;;;;;5004939;28;20025;-67
2022/03/27 06:56:23;;;;;;;34.20;14.88;;;5.20;97.30;;;;;;5004833;28;20037;-65
2022/03/27 06:58:49;;;;;;;38.85;15.23;;;5.30;97.00;;;;;;5005272;28;20025;-66
2022/03/27 07:03:59;;;;;;;;;;;5.40;96.70;;;;;;5008500;28;20064;-65
2022/03/27 07:06:24;;;;;;;31.65;14.32;;;5.40;96.60;;;;;;5006206;28;20000;-67
2022/03/27 07:08:50;;;;;;;33.75;15.00;;;5.50;96.50;;;;;;5010684;28;20386;-67
2022/03/27 07:11:16;;;;;;;28.88;14.40;;;5.60;96.30;;;;;;5009740;28;20044;-67
2022/03/27 07:13:41;;;;;;;27.85;14.30;;;5.60;96.20;;;;;;5001889;28;20048;-68
2022/03/27 07:16:07;;;;;;;31.13;13.90;;;5.70;96.20;;;;;;5007982;28;20050;-65
2022/03/27 07:18:33;;;;;;;29.45;14.10;;;5.90;96.50;;;;;;4995307;28;20076;-69
2022/03/27 07:20:59;;;;;;;33.15;15.65;;;6.10;95.80;;;;;;5009165;28;20040;-69
2022/03/27 07:23:25;;;;;;;29.60;14.00;;;6.20;95.10;;;;;;5000828;28;20491;-68
2022/03/27 07:25:53;;;;;;;33.40;13.77;;;6.30;94.50;;;;;;5004488;28;20034;-68
2022/03/27 07:28:20;;;;;;;30.02;14.45;;;6.30;93.90;;;;;;5005561;28;20031;-69
2022/03/27 07:30:47;;;;;;;39.47;15.40;;;6.30;93.90;;;;;;5009793;28;20033;-68
2022/03/27 07:33:14;;;;;;;33.38;14.95;;;6.50;93.80;;;;;;5007698;28;20035;-68
2022/03/27 07:35:40;;;;;;;35.10;14.43;;;6.50;93.60;;;;;;5014864;28;20018;-68
2022/03/27 07:38:06;;;;;;;29.00;15.30;;;6.50;93.40;;;;;;5015038;28;20033;-68
2022/03/27 07:40:32;;;;;;;35.33;15.43;;;6.60;93.40;;;;;;5000862;28;20027;-68
2022/03/27 07:42:58;;;;;;;31.02;13.63;;;6.60;93.30;;;;;;4996997;28;20057;-68
2022/03/27 07:45:26;;;;;;;30.33;14.57;;;6.70;93.30;;;;;;5008824;28;20058;-68
2022/03/27 07:47:54;;;;;;;35.42;15.32;;;6.80;93.10;;;;;;5003786;28;20030;-68
2022/03/27 07:50:22;;;;;;;32.22;14.88;;;6.80;92.90;;;;;;5012617;28;20029;-68
2022/03/27 07:52:48;;;;;;;31.92;14.30;;;6.90;92.60;;;;;;5008923;28;20022;-67
2022/03/27 07:55:17;;;;;;;28.48;13.70;;;7.00;92.50;;;;;;5003040;28;20017;-68
2022/03/27 07:57:43;;;;;;;35.05;14.82;;;7.10;92.30;;;;;;5003091;28;20064;-68
2022/03/27 08:00:11;;;;;;;33.42;14.30;;;7.30;92.00;;;;;;5006624;28;20030;-69
2022/03/27 08:02:37;;;;;;;30.20;13.60;;;7.30;91.80;;;;;;5002929;28;20026;-69
2022/03/27 08:05:04;;;;;;;33.53;14.52;;;7.40;91.30;;;;;;5009045;28;20135;-69
2022/03/27 08:07:31;;;;;;;32.47;15.27;;;7.40;91.30;;;;;;5007388;28;20034;-69
2022/03/27 08:09:56;;;;;;;31.55;15.00;;;7.50;91.20;;;;;;5005174;28;20029;-69
2022/03/27 08:12:22;;;;;;;25.17;13.38;;;7.60;91.10;;;;;;5006306;28;20061;-66
2022/03/27 08:14:48;;;;;;;33.22;14.38;;;7.70;90.70;;;;;;5006119;28;20037;-66
2022/03/27 08:17:16;;;;;;;28.88;14.80;;;7.80;90.50;;;;;;5009541;28;20032;-66
2022/03/27 08:19:43;;;;;;;39.88;14.05;;;7.90;90.30;;;;;;5009643;28;20405;-68
2022/03/27 08:22:11;;;;;;;35.45;14.73;;;8.00;90.20;;;;;;5007046;28;20041;-68
2022/03/27 08:24:37;;;;;;;29.92;13.75;;;8.10;89.60;;;;;;5004576;28;20540;-68
2022/03/27 08:27:04;;;;;;;30.13;14.00;;;8.10;89.50;;;;;;5006094;28;20034;-69
2022/03/27 08:29:34;;;;;;;31.20;13.57;;;8.30;88.90;;;;;;5001514;28;20045;-69
2022/03/27 08:32:02;;;;;;;30.70;13.27;;;8.40;88.40;;;;;;5003989;28;20121;-68
2022/03/27 08:34:30;;;;;;;31.45;14.82;;;8.50;87.80;;;;;;5005121;28;20030;-69
2022/03/27 08:36:57;;;;;;;31.70;13.55;;;8.50;87.60;;;;;;5002099;28;20018;-68
2022/03/27 08:39:24;;;;;;;34.92;15.63;;;8.60;87.30;;;;;;5000314;28;20030;-68
2022/03/27 08:41:53;;;;;;;31.92;14.20;;;8.60;86.80;;;;;;5004642;28;20050;-67
2022/03/27 08:44:19;;;;;;;36.72;15.30;;;8.70;86.60;;;;;;5003926;28;20037;-68
2022/03/27 08:46:46;;;;;;;33.45;13.27;;;8.80;86.90;;;;;;5005207;28;20026;-68
2022/03/27 08:49:35;;;;;;;33.88;14.50;;;8.80;86.60;;;;;;5003122;28;20033;-68
2022/03/27 08:52:01;;;;;;;33.35;15.02;;;8.90;86.00;;;;;;5009436;28;20029;-67
2022/03/27 08:54:40;;;;;;;29.05;14.40;;;9.10;85.40;;;;;;5001603;28;20026;-68
2022/03/27 08:57:11;;;;;;;31.17;14.75;;;9.20;84.60;;;;;;5003445;28;20021;-68
2022/03/27 08:59:38;;;;;;;31.13;14.68;;;9.30;84.50;;;;;;5005567;28;20093;-68
2022/03/27 09:02:04;;;;;;;32.08;14.70;;;9.30;84.00;;;;;;4999076;28;20687;-68
2022/03/27 09:04:31;;;;;;;35.30;14.75;;;9.50;84.20;;;;;;5008145;28;20037;-68
2022/03/27 09:06:57;;;;;;;33.88;14.73;;;9.70;83.90;;;;;;5007209;28;20663;-68
2022/03/27 09:09:22;;;;;;;34.65;14.10;;;9.90;83.70;;;;;;4998218;28;20030;-68
2022/03/27 09:11:54;;;;;;;31.90;14.40;;;10.00;83.80;;;;;;5005087;28;20080;-68
2022/03/27 09:14:21;;;;;;;29.05;13.63;;;10.10;83.70;;;;;;5006616;28;20037;-68
2022/03/27 09:17:06;;;;;;;27.60;13.75;;;10.30;83.80;;;;;;5005229;28;20018;-68
2022/03/27 09:19:51;;;;;;;30.02;14.57;;;10.50;84.10;;;;;;5005618;28;20030;-68
2022/03/27 09:22:29;;;;;;;30.52;13.88;;;10.60;84.20;;;;;;5002635;28;20034;-68
2022/03/27 09:25:03;;;;;;;31.40;13.93;;;10.70;83.60;;;;;;4999105;28;20090;-68
2022/03/27 09:27:38;;;;;;;30.55;14.55;;;10.70;83.60;;;;;;5004009;28;20440;-68
2022/03/27 09:30:09;;;;;;;31.52;14.38;;;10.70;83.80;;;;;;5004390;28;20030;-68
2022/03/27 09:32:39;;;;;;;31.77;14.35;;;10.80;83.60;;;;;;5002671;28;20057;-68
2022/03/27 09:35:11;;;;;;;34.53;15.27;;;10.90;83.80;;;;;;5002187;28;20033;-68
2022/03/27 09:37:39;;;;;;;28.00;13.75;;;11.00;83.80;;;;;;5002051;28;20026;-69
2022/03/27 09:40:06;;;;;;;28.90;13.90;;;11.10;83.90;;;;;;5003392;28;20495;-68
2022/03/27 09:42:32;;;;;;;30.88;13.20;;;11.20;83.80;;;;;;5001736;28;20045;-68
2022/03/27 09:45:17;;;;;;;30.20;13.65;;;11.40;83.40;;;;;;5018438;28;20210;-68
2022/03/27 09:47:47;;;;;;;28.15;13.13;;;11.40;83.40;;;;;;5002954;28;20509;-68
2022/03/27 09:50:32;;;;;;;28.50;12.77;;;11.60;81.60;;;;;;5002428;28;20026;-68
2022/03/27 09:53:17;;;;;;;24.25;12.15;;;11.70;81.00;;;;;;5008111;28;20072;-68
2022/03/27 09:55:42;;;;;;;;;;;11.90;79.50;;;;;;5004392;28;20498;-68
2022/03/27 09:58:09;;;;;;;23.83;11.85;;;12.10;79.00;;;;;;5009337;28;19952;-68
2022/03/27 10:00:35;;;;;;;29.15;13.02;;;12.10;78.30;;;;;;5003179;28;20293;-68
2022/03/27 10:03:12;;;;;;;26.38;12.35;;;12.20;78.50;;;;;;5002699;28;20034;-67
2022/03/27 10:05:38;;;;;;;25.48;12.00;;;12.30;77.60;;;;;;4998590;28;20386;-69
2022/03/27 10:08:05;;;;;;;32.85;13.18;;;12.40;76.80;;;;;;5004918;28;20018;-69
2022/03/27 10:10:30;;;;;;;26.23;12.90;;;12.50;76.50;;;;;;4995364;28;20479;-68
2022/03/27 10:12:58;;;;;;;30.40;11.68;;;12.50;76.50;;;;;;5000454;28;20026;-67
2022/03/27 10:15:26;;;;;;;24.00;12.00;;;12.80;75.60;;;;;;5002959;28;20037;-68
2022/03/27 10:17:57;;;;;;;26.15;12.20;;;12.80;75.00;;;;;;5004496;28;20014;-68
2022/03/27 10:20:46;;;;;;;31.17;13.70;;;12.90;74.80;;;;;;4998651;28;20055;-67
2022/03/27 10:23:23;;;;;;;26.25;12.25;;;13.10;73.50;;;;;;4998758;28;20423;-69
2022/03/27 10:25:53;;;;;;;27.02;12.60;;;13.10;72.90;;;;;;4999816;28;20033;-68
2022/03/27 10:28:19;;;;;;;31.02;13.02;;;13.20;72.50;;;;;;5000863;28;20073;-70
2022/03/27 10:30:48;;;;;;;24.98;11.20;;;13.30;72.50;;;;;;5008072;28;20026;-69
2022/03/27 10:33:15;;;;;;;27.33;11.98;;;13.40;71.80;;;;;;5008739;28;20065;-69
2022/03/27 10:35:59;;;;;;;28.95;11.70;;;13.50;70.70;;;;;;5008974;28;20056;-68
2022/03/27 10:38:25;;;;;;;;;;;13.60;70.50;;;;;;5009940;28;20022;-66
2022/03/27 10:41:20;;;;;;;22.02;10.93;;;13.70;69.60;;;;;;5000441;28;19921;-67
2022/03/27 10:44:30;;;;;;;25.35;11.90;;;14.00;69.00;;;;;;5007770;28;20076;-68
2022/03/27 10:47:17;;;;;;;25.25;12.23;;;14.00;68.70;;;;;;4987144;28;20034;-69
2022/03/27 10:50:06;;;;;;;22.13;11.88;;;14.10;68.40;;;;;;4984709;28;20601;-68
2022/03/27 10:52:36;;;;;;;25.80;13.02;;;14.20;67.90;;;;;;4997523;28;20041;-68
2022/03/27 10:55:13;;;;;;;27.00;11.63;;;14.20;68.00;;;;;;5009240;28;20545;-68
2022/03/27 10:57:42;;;;;;;23.80;12.38;;;14.20;67.60;;;;;;5001817;28;20559;-68
2022/03/27 11:00:10;;;;;;;26.17;12.18;;;14.30;67.70;;;;;;5004012;28;20041;-69
2022/03/27 11:02:53;;;;;;;25.17;12.25;;;14.40;67.60;;;;;;5009102;28;20033;-68
2022/03/27 11:05:36;;;;;;;24.58;12.52;;;14.50;67.00;;;;;;5006119;28;20026;-69
2022/03/27 11:08:17;;;;;;;24.40;13.33;;;14.50;66.80;;;;;;5005640;28;20029;-69
2022/03/27 11:10:55;;;;;;;24.33;11.27;;;14.60;65.90;;;;;;5005300;28;20394;-68
2022/03/27 11:13:27;;;;;;;23.50;10.82;;;14.70;65.70;;;;;;5007721;28;20041;-69
2022/03/27 11:16:15;;;;;;;26.15;12.48;;;14.90;66.30;;;;;;5003518;28;20124;-69
2022/03/27 11:18:49;;;;;;;25.55;12.50;;;15.00;65.90;;;;;;5005148;28;20030;-67
2022/03/27 11:21:27;;;;;;;;;;;15.10;65.80;;;;;;5004809;28;20538;-67
2022/03/27 11:24:15;;;;;;;26.00;12.13;;;15.20;65.60;;;;;;5018749;28;19964;-69
2022/03/27 11:26:41;;;;;;;24.50;11.57;;;15.30;64.80;;;;;;4998277;28;20505;-72
2022/03/27 11:29:10;;;;;;;29.42;12.18;;;15.30;64.70;;;;;;5001751;28;20497;-71
2022/03/27 11:31:37;;;;;;;24.73;12.18;;;15.50;63.80;;;;;;5007394;28;20030;-68
2022/03/27 11:34:11;;;;;;;30.48;12.48;;;15.60;63.80;;;;;;5002450;28;20030;-69
2022/03/27 11:36:38;;;;;;;;;;;15.60;63.50;;;;;;5010137;28;20018;-69
2022/03/27 11:39:09;;;;;;;18.13;10.00;;;15.60;62.60;;;;;;5004551;28;19917;-69
2022/03/27 11:41:45;;;;;;;21.05;10.98;;;15.80;62.00;;;;;;5008643;28;20021;-69
2022/03/27 11:44:20;;;;;;;22.02;11.30;;;15.90;61.70;;;;;;5007525;28;20030;-70
2022/03/27 11:46:50;;;;;;;24.58;10.68;;;15.90;63.20;;;;;;5002135;28;20069;-69
2022/03/27 11:49:17;;;;;;;19.67;10.45;;;16.10;61.10;;;;;;5004343;28;20518;-69
2022/03/27 11:51:43;;;;;;;23.30;11.02;;;16.10;60.30;;;;;;5007006;28;20550;-70
2022/03/27 11:54:23;;;;;;;25.65;12.80;;;16.10;60.30;;;;;;5004946;28;20582;-69
2022/03/27 11:56:59;;;;;;;20.70;10.60;;;16.30;59.50;;;;;;5009045;28;20042;-70
2022/03/27 11:59:28;;;;;;;22.42;10.98;;;16.20;58.10;;;;;;5007093;28;20440;-69
2022/03/27 12:01:57;;;;;;;22.65;9.93;;;16.30;56.90;;;;;;5005386;28;20022;-69
2022/03/27 12:04:27;;;;;;;22.00;10.40;;;16.40;55.60;;;;;;5007304;28;20129;-69
2022/03/27 12:07:02;;;;;;;22.35;9.15;;;16.40;56.20;;;;;;5007801;28;20497;-69
2022/03/27 12:09:31;;;;;;;21.27;9.88;;;16.50;56.00;;;;;;5010972;28;20620;-69
2022/03/27 12:12:15;;;;;;;21.60;11.02;;;16.70;55.10;;;;;;5008694;28;20037;-69
2022/03/27 12:14:55;;;;;;;23.63;11.50;;;16.70;53.90;;;;;;5008067;28;20512;-69
2022/03/27 12:17:23;;;;;;;19.80;9.75;;;16.60;53.50;;;;;;5006075;28;20267;-69
2022/03/27 12:19:58;;;;;;;20.55;9.55;;;16.80;52.00;;;;;;5006529;28;20041;-69
2022/03/27 12:22:34;;;;;;;28.75;12.00;;;16.70;51.90;;;;;;5010062;28;20487;-69
2022/03/27 12:25:01;;;;;;;20.98;9.45;;;16.60;52.80;;;;;;5007447;28;20022;-69
2022/03/27 12:30:11;;;;;;;25.30;9.13;;;16.90;52.30;;;;;;5001077;28;20041;-68
2022/03/27 12:32:37;;;;;;;18.52;9.35;;;17.00;51.60;;;;;;5009648;28;20030;-69
2022/03/27 12:35:05;;;;;;;16.40;8.88;;;17.00;50.60;;;;;;5008285;28;20030;-69
2022/03/27 12:37:33;;;;;;;19.10;8.98;;;17.10;49.20;;;;;;5009748;28;20443;-69
2022/03/27 12:40:06;;;;;;;21.17;9.95;;;17.10;49.10;;;;;;5007437;28;20022;-69
2022/03/27 12:42:44;;;;;;;19.45;9.70;;;17.20;48.50;;;;;;5007265;28;20113;-69
2022/03/27 12:45:21;;;;;;;16.13;8.70;;;17.10;48.10;;;;;;5007493;28;20092;-69
2022/03/27 12:48:03;;;;;;;17.38;9.15;;;17.20;47.80;;;;;;5009479;28;20025;-69
2022/03/27 12:50:29;;;;;;;16.40;8.13;;;17.00;47.90;;;;;;5009106;28;20029;-69